Time;durP1;ratioP1;P1;durP2;ratioP2;P2;SDS_P1;SDS_P2;PMS_P1;PMS_P2;Temp;Humidity;BMP_temperature;BMP_pressure;BME280_temperature;BME280_humidity;BME280_pressure;Samples;Min_cycle;Max_cycle;Signal;HPM_P1;HPM_P2
2022/09/28 00:04:59;;;;;;;8.27;3.50;;;;;;;9.28;64.91;97956.25;10400598;28;20521;-81
2022/09/28 00:10:00;;;;;;;7.57;3.03;;;;;;;9.12;65.62;97948.88;10413507;28;20069;-81
2022/09/28 00:15:02;;;;;;;5.47;3.10;;;;;;;9.15;65.96;97929.56;10396627;28;20060;-81
2022/09/28 00:20:04;;;;;;;8.55;3.40;;;;;;;9.32;65.89;97929.75;10399086;28;20049;-81
2022/09/28 00:25:06;;;;;;;7.28;3.55;;;;;;;9.33;66.20;97918.38;10413426;28;20053;-81
2022/09/28 00:30:08;;;;;;;9.93;3.53;;;;;;;9.27;66.11;97903.25;10393785;28;20049;-81
2022/09/28 00:35:10;;;;;;;7.20;3.63;;;;;;;9.26;66.20;97906.00;10414917;28;20060;-81
2022/09/28 00:40:12;;;;;;;9.60;4.53;;;;;;;9.31;66.31;97896.81;10394974;28;20817;-81
2022/09/28 00:45:13;;;;;;;10.43;4.35;;;;;;;9.32;66.54;97895.81;10396164;28;20052;-80
2022/09/28 00:50:21;;;;;;;8.23;4.03;;;;;;;9.37;66.62;97892.84;10413592;28;20902;-80
2022/09/28 00:55:36;;;;;;;6.80;4.53;;;;;;;9.39;66.92;97896.97;10397160;28;20056;-81
2022/09/28 01:00:39;;;;;;;6.72;4.10;;;;;;;9.39;66.78;97898.75;10410456;28;20076;-81
2022/09/28 01:05:42;;;;;;;9.10;4.53;;;;;;;9.39;66.83;97894.34;10412374;28;20061;-80
2022/09/28 01:10:44;;;;;;;7.95;4.00;;;;;;;9.35;66.86;97874.72;10412349;28;20045;-81
2022/09/28 01:16:06;;;;;;;12.77;8.15;;;;;;;9.37;66.92;97878.00;10392435;28;20045;-80
2022/09/28 01:21:17;;;;;;;8.93;5.10;;;;;;;9.48;66.75;97870.06;10396368;28;20056;-81
2022/09/28 01:26:35;;;;;;;10.68;4.13;;;;;;;9.46;67.10;97863.34;10410520;28;20064;-81
2022/09/28 01:31:43;;;;;;;6.57;3.70;;;;;;;9.35;67.02;97853.84;10409368;28;20057;-81
2022/09/28 01:36:49;;;;;;;8.27;3.47;;;;;;;9.41;66.96;97850.69;10393300;28;20068;-81
2022/09/28 01:41:55;;;;;;;12.45;7.50;;;;;;;9.39;67.00;97855.22;10411591;28;20411;-80
2022/09/28 01:47:03;;;;;;;9.63;6.43;;;;;;;9.36;67.28;97860.69;10412708;28;20057;-81
2022/09/28 01:52:26;;;;;;;5.93;3.85;;;;;;;9.29;67.86;97857.00;10390776;28;21008;-81
2022/09/28 01:57:49;;;;;;;5.80;3.38;;;;;;;9.23;67.79;97849.69;10394181;28;20419;-81
2022/09/28 02:03:11;;;;;;;6.95;5.22;;;;;;;9.34;67.29;97841.75;10413343;28;20045;-81
2022/09/28 02:08:28;;;;;;;8.30;4.63;;;;;;;9.23;67.73;97843.66;10414655;28;20053;-81
2022/09/28 02:13:36;;;;;;;7.68;4.20;;;;;;;9.29;67.56;97846.56;10400505;28;20410;-81
2022/09/28 02:18:38;;;;;;;6.43;3.40;;;;;;;9.29;67.37;97845.72;10418660;28;20059;-81
2022/09/28 02:24:04;;;;;;;6.50;3.90;;;;;;;9.29;67.31;97846.56;10403878;28;20527;-81
2022/09/28 02:29:07;;;;;;;6.53;4.03;;;;;;;9.35;67.60;97846.00;10422997;28;20064;-81
2022/09/28 02:34:09;;;;;;;5.50;3.47;;;;;;;9.45;67.29;97849.47;10403675;28;20057;-81
2022/09/28 02:39:17;;;;;;;5.25;3.35;;;;;;;9.52;67.35;97840.13;10406535;28;20375;-81
2022/09/28 02:44:38;;;;;;;6.35;3.45;;;;;;;9.52;67.18;97844.53;10427200;28;20146;-81
2022/09/28 02:49:51;;;;;;;8.13;4.63;;;;;;;9.43;67.47;97847.94;10424368;28;20048;-81
2022/09/28 02:55:41;;;;;;;9.57;5.57;;;;;;;9.17;68.31;97846.78;10406422;28;20058;-80
2022/09/28 03:01:04;;;;;;;11.57;6.22;;;;;;;9.21;68.24;97858.59;10280056;28;20051;-81
2022/09/28 03:06:14;;;;;;;5.78;2.92;;;;;;;9.30;67.96;97852.59;10405919;28;20068;-81
2022/09/28 03:11:23;;;;;;;6.75;3.20;;;;;;;9.31;68.02;97855.06;10418011;28;20483;-81
2022/09/28 03:16:26;;;;;;;5.22;2.30;;;;;;;9.36;67.39;97849.47;10416486;28;20053;-80
2022/09/28 03:21:28;;;;;;;4.72;2.03;;;;;;;9.38;67.06;97852.75;10400276;28;20041;-81
2022/09/28 03:26:30;;;;;;;5.68;1.60;;;;;;;9.29;66.80;97851.78;10402042;28;20145;-81
2022/09/28 03:31:31;;;;;;;4.25;1.90;;;;;;;9.33;67.05;97857.53;10398534;28;20055;-81
2022/09/28 03:36:33;;;;;;;5.93;2.58;;;;;;;9.34;67.26;97860.00;10418934;28;20068;-81
2022/09/28 03:41:35;;;;;;;6.85;2.10;;;;;;;9.22;67.20;97862.88;10397323;28;20042;-81
2022/09/28 03:46:36;;;;;;;3.17;1.70;;;;;;;9.26;66.63;97859.84;10400871;28;20046;-81
2022/09/28 03:51:38;;;;;;;2.35;1.42;;;;;;;9.33;66.26;97855.75;10398823;28;20549;-81
2022/09/28 03:56:40;;;;;;;4.72;2.10;;;;;;;9.33;66.32;97863.59;10401118;28;20064;-82
2022/09/28 04:01:41;;;;;;;6.05;1.88;;;;;;;9.37;66.30;97859.75;10410608;28;20643;-82
2022/09/28 04:06:43;;;;;;;5.53;1.77;;;;;;;9.33;66.14;97860.16;10417499;28;20523;-81
2022/09/28 04:11:46;;;;;;;7.78;2.15;;;;;;;9.35;66.49;97863.44;10397412;28;20052;-81
2022/09/28 04:17:06;;;;;;;8.00;2.38;;;;;;;9.19;66.56;97863.97;10403840;28;20056;-81
2022/09/28 04:22:07;;;;;;;4.78;2.13;;;;;;;9.10;66.98;97862.13;10395943;28;20052;-81
2022/09/28 04:32:31;;;;;;;5.18;2.00;;;;;;;8.71;67.10;97857.72;10389425;28;20064;-81
2022/09/28 04:37:33;;;;;;;3.90;1.67;;;;;;;8.45;67.46;97859.09;10399684;28;20061;-81
2022/09/28 04:42:35;;;;;;;3.45;1.80;;;;;;;8.23;67.67;97867.03;10414722;28;20768;-81
2022/09/28 04:47:37;;;;;;;3.75;1.85;;;;;;;8.18;67.71;97869.22;10398301;28;20431;-81
2022/09/28 04:52:39;;;;;;;3.42;1.73;;;;;;;8.04;67.92;97873.75;10398676;28;20053;-81
2022/09/28 04:57:40;;;;;;;3.42;2.00;;;;;;;8.03;67.86;97872.09;10415912;28;20414;-80
2022/09/28 05:02:42;;;;;;;5.65;2.10;;;;;;;7.92;68.14;97879.94;10408391;28;20049;-81
2022/09/28 05:07:44;;;;;;;4.75;2.35;;;;;;;7.82;68.58;97880.81;10400645;28;20060;-81
2022/09/28 05:12:46;;;;;;;4.05;1.83;;;;;;;7.71;68.65;97883.47;10397018;28;20048;-81
2022/09/28 05:17:48;;;;;;;4.47;2.00;;;;;;;7.66;68.73;97893.41;10414260;28;20979;-81
2022/09/28 05:22:49;;;;;;;5.05;2.50;;;;;;;7.64;68.79;97885.72;10393188;28;20565;-81
2022/09/28 05:27:55;;;;;;;4.05;2.00;;;;;;;7.56;69.05;97893.31;10397605;28;20079;-80
2022/09/28 05:32:56;;;;;;;5.10;2.33;;;;;;;7.51;69.19;97894.66;10392780;28;20045;-81
2022/09/28 05:38:13;;;;;;;8.38;2.10;;;;;;;7.61;68.93;97904.19;10414780;28;20099;-81
2022/09/28 05:43:15;;;;;;;4.90;1.90;;;;;;;7.61;68.41;97901.56;10414078;28;20491;-81
2022/09/28 05:48:17;;;;;;;3.65;1.98;;;;;;;7.63;68.75;97915.28;10395465;28;20060;-80
2022/09/28 05:53:19;;;;;;;3.72;1.85;;;;;;;7.79;68.31;97912.31;10398398;28;20053;-81
2022/09/28 05:58:20;;;;;;;4.43;1.90;;;;;;;7.85;68.45;97910.00;10403796;28;20086;-81
2022/09/28 06:03:23;;;;;;;5.25;2.00;;;;;;;7.85;68.34;97904.81;10418928;28;20076;-81
2022/09/28 06:08:25;;;;;;;3.70;2.00;;;;;;;7.96;68.26;97911.75;10405317;28;20045;-81
2022/09/28 06:13:30;;;;;;;3.88;1.80;;;;;;;7.95;68.04;97899.69;10422733;28;20048;-80
2022/09/28 06:18:32;;;;;;;4.40;1.80;;;;;;;7.96;67.88;97915.19;10398505;28;20060;-81
2022/09/28 06:23:34;;;;;;;3.70;1.60;;;;;;;7.98;67.66;97918.50;10403240;28;20049;-81
2022/09/28 06:28:36;;;;;;;2.90;1.60;;;;;;;7.92;67.71;97915.56;10417597;28;20507;-81
2022/09/28 06:33:38;;;;;;;3.95;1.80;;;;;;;7.96;68.02;97923.00;10400895;28;20057;-81
2022/09/28 06:38:39;;;;;;;4.70;1.80;;;;;;;8.25;67.32;97936.28;10403179;28;20053;-81
2022/09/28 06:43:41;;;;;;;2.97;1.70;;;;;;;8.44;67.51;97941.66;10414523;28;20049;-81
2022/09/28 06:48:43;;;;;;;3.78;1.42;;;;;;;8.54;67.03;97941.72;10419856;28;20045;-81
2022/09/28 06:53:45;;;;;;;6.60;1.80;;;;;;;9.10;66.01;97939.53;10402665;28;20076;-81
2022/09/28 06:58:47;;;;;;;3.60;1.70;;;;;;;9.16;65.45;97946.84;10399480;28;20053;-80
2022/09/28 07:03:48;;;;;;;4.20;1.73;;;;;;;9.28;65.54;97948.41;10402265;28;20052;-81
2022/09/28 07:08:55;;;;;;;4.28;2.10;;;;;;;9.50;65.14;97946.41;10419910;28;20499;-80
2022/09/28 07:14:19;;;;;;;6.57;4.38;;;;;;;9.61;64.84;97956.75;10418371;28;20052;-80
2022/09/28 07:19:41;;;;;;;3.65;2.17;;;;;;;9.53;64.75;97967.03;10402820;28;20061;-80
2022/09/28 07:24:47;;;;;;;4.57;2.00;;;;;;;9.58;64.20;97961.44;10391974;28;20073;-80
2022/09/28 07:29:50;;;;;;;5.63;1.90;;;;;;;9.83;63.81;97975.81;10389547;28;20050;-79
2022/09/28 07:34:52;;;;;;;4.32;1.67;;;;;;;10.01;62.81;97984.63;10401265;28;20049;-79
2022/09/28 07:45:28;;;;;;;5.47;1.70;;;;;;;10.02;62.77;97996.72;10413762;28;20049;-80
2022/09/28 07:50:32;;;;;;;5.47;1.80;;;;;;;10.22;62.34;98001.00;10411171;28;20496;-79
2022/09/28 07:55:35;;;;;;;9.57;5.15;;;;;;;10.43;62.13;97999.94;10411856;28;20053;-80
2022/09/28 08:00:37;;;;;;;4.05;1.92;;;;;;;10.95;61.21;98009.09;10404364;28;20057;-80
2022/09/28 08:05:41;;;;;;;5.85;2.20;;;;;;;11.05;60.31;98023.00;10397303;28;20044;-79
2022/09/28 08:10:44;;;;;;;5.97;2.15;;;;;;;11.04;60.01;98017.94;10389624;28;20514;-79
2022/09/28 08:15:50;;;;;;;7.10;3.65;;;;;;;11.58;59.15;98020.66;10388023;28;20057;-79
2022/09/28 08:26:19;;;;;;;3.67;1.70;;;;;;;12.99;56.55;98036.56;10416768;28;20084;-79
2022/09/28 08:31:31;;;;;;;5.40;1.90;;;;;;;12.67;55.03;98047.63;10409931;28;20061;-80
2022/09/28 08:36:33;;;;;;;4.95;1.60;;;;;;;12.42;55.32;98053.59;10403635;28;20063;-80
2022/09/28 08:41:54;;;;;;;5.03;1.60;;;;;;;12.53;54.45;98058.66;10382080;28;20049;-80
2022/09/28 08:48:42;;;;;;;5.20;1.38;;;;;;;12.86;52.52;98065.81;10406803;28;20549;-80
2022/09/28 08:52:37;;;;;;;3.90;1.92;;;;;;;12.92;53.96;98067.84;10408444;28;20053;-80
2022/09/28 08:57:49;;;;;;;6.00;2.90;;;;;;;13.19;52.66;98063.47;10410643;28;20423;-79
2022/09/28 09:02:54;;;;;;;3.80;1.38;;;;;;;13.00;53.37;98068.88;10412684;28;20049;-79
2022/09/28 09:08:36;;;;;;;4.90;2.10;;;;;;;13.06;51.90;98071.75;10392962;28;20091;-80
2022/09/28 09:13:55;;;;;;;3.90;1.42;;;;;;;13.54;50.51;98077.34;10410365;28;20053;-80
2022/09/28 09:19:47;;;;;;;6.28;3.00;;;;;;;14.04;51.03;98077.47;10405399;28;20076;-80
2022/09/28 09:25:15;;;;;;;3.38;1.30;;;;;;;14.29;49.89;98081.81;10394232;28;20049;-79
2022/09/28 09:30:25;;;;;;;5.75;1.60;;;;;;;14.89;48.41;98065.84;10370440;28;20069;-81
2022/09/28 09:35:47;;;;;;;3.13;1.35;;;;;;;15.62;45.96;98067.47;10358439;28;20135;-82
2022/09/28 09:41:17;;;;;;;4.18;1.42;;;;;;;15.68;45.81;98072.06;10386735;28;20049;-79
2022/09/28 09:46:39;;;;;;;3.40;1.50;;;;;;;15.49;45.42;98069.78;10350169;28;20053;-79
2022/09/28 09:52:05;;;;;;;2.80;1.27;;;;;;;15.08;44.88;98068.16;10356575;28;20060;-82
2022/09/28 09:57:33;;;;;;;2.30;1.02;;;;;;;14.85;46.34;98077.69;10392115;28;20054;-82
2022/09/28 10:02:35;;;;;;;2.08;1.05;;;;;;;14.54;47.22;98088.00;10350294;28;20415;-81
2022/09/28 10:07:52;;;;;;;4.38;1.73;;;;;;;15.27;45.31;98083.59;10356869;28;20060;-81
2022/09/28 10:12:55;;;;;;;3.05;1.15;;;;;;;14.95;45.93;98084.44;10393065;28;20125;-81
2022/09/28 10:18:02;;;;;;;3.20;1.30;;;;;;;14.45;47.15;98081.84;10374498;28;20061;-82
2022/09/28 10:23:05;;;;;;;2.45;1.20;;;;;;;14.08;47.59;98094.56;10375623;28;20056;-81
2022/09/28 10:34:48;;;;;;;1.35;0.75;;;;;;;12.98;48.75;98100.53;10365061;28;20057;-83
2022/09/28 10:40:54;;;;;;;2.42;1.13;;;;;;;12.90;49.66;98105.72;10136376;29;20576;-82
2022/09/28 10:46:27;;;;;;;4.40;1.17;;;;;;;13.30;48.62;98113.91;10180749;28;20050;-82
2022/09/28 10:52:20;;;;;;;2.63;0.70;;;;;;;13.31;48.49;98106.88;10091114;29;20056;-82
2022/09/28 10:58:38;;;;;;;;;;;;;;;;;;;;;
2022/09/28 11:04:17;;;;;;;2.35;1.00;;;;;;;13.00;50.50;98116.97;9986800;29;20054;-82
2022/09/28 11:10:44;;;;;;;;;;;;;;;;;;;;;
2022/09/28 11:16:57;;;;;;;2.85;1.08;;;;;;;13.52;48.38;98117.88;9926668;29;20077;-82
2022/09/28 11:36:22;;;;;;;2.05;0.70;;;;;;;13.93;48.20;98113.69;10109356;29;20040;-82
2022/09/28 11:42:06;;;;;;;1.13;0.90;;;;;;;14.14;47.26;98107.06;10098276;29;20167;-81
2022/09/28 11:54:53;;;;;;;4.85;1.17;;;;;;;14.36;47.23;98110.94;10275746;28;20043;-81
2022/09/28 12:00:14;;;;;;;2.40;1.00;;;;;;;14.57;47.09;98096.38;10148450;28;20152;-84
2022/09/28 12:05:35;;;;;;;2.40;1.15;;;;;;;14.47;46.72;98108.81;10288645;28;20148;-83
2022/09/28 12:10:41;;;;;;;3.13;1.02;;;;;;;14.47;47.36;98103.56;10283896;28;20062;-83
2022/09/28 12:15:51;;;;;;;1.70;0.65;;;;;;;14.64;48.36;98107.09;10296575;28;20054;-85
2022/09/28 12:21:31;;;;;;;3.30;1.00;;;;;;;14.78;47.25;98103.03;10302656;28;20519;-82
2022/09/28 12:26:48;;;;;;;2.88;1.00;;;;;;;14.83;46.45;98098.06;10362234;28;20507;-83
2022/09/28 12:32:12;;;;;;;3.08;1.10;;;;;;;14.85;46.25;98104.00;10378565;28;20056;-82
2022/09/28 12:37:22;;;;;;;1.88;0.93;;;;;;;14.89;46.00;98100.06;10386094;28;20522;-82
2022/09/28 12:43:03;;;;;;;2.33;1.00;;;;;;;14.87;45.07;98096.78;10404110;28;20049;-82
2022/09/28 12:48:47;;;;;;;2.08;0.90;;;;;;;15.03;44.63;98102.88;10424554;28;20068;-83
2022/09/28 12:54:46;;;;;;;3.00;0.63;;;;;;;15.01;44.39;98104.03;10427098;28;20571;-83
2022/09/28 13:00:17;;;;;;;1.52;0.93;;;;;;;14.93;44.26;98114.53;10412566;28;20064;-78
2022/09/28 13:05:37;;;;;;;2.80;1.00;;;;;;;15.04;44.33;98109.78;10414166;28;20114;-82
2022/09/28 13:10:51;;;;;;;3.30;0.95;;;;;;;15.23;43.78;98104.19;10416158;28;20049;-82
2022/09/28 13:16:04;;;;;;;3.40;1.10;;;;;;;15.28;44.45;98106.34;10417934;28;20057;-82
2022/09/28 13:21:31;;;;;;;1.65;0.90;;;;;;;15.26;44.09;98108.31;10397474;28;20835;-81
2022/09/28 13:26:36;;;;;;;1.63;1.08;;;;;;;15.52;44.46;98097.63;10421117;28;20049;-82
2022/09/28 13:31:53;;;;;;;2.63;0.90;;;;;;;15.90;44.09;98102.13;10418766;28;20507;-82
2022/09/28 13:37:17;;;;;;;2.58;1.10;;;;;;;15.78;43.59;98100.84;10394501;28;20053;-82
2022/09/28 13:42:42;;;;;;;2.25;1.10;;;;;;;15.75;44.30;98104.66;10414887;28;20305;-82
2022/09/28 13:48:05;;;;;;;3.42;1.00;;;;;;;15.68;43.41;98097.59;10414800;28;20523;-82
2022/09/28 13:53:19;;;;;;;3.33;1.10;;;;;;;15.50;43.54;98103.06;10415823;28;20058;-82
2022/09/28 13:58:28;;;;;;;5.45;1.10;;;;;;;15.29;45.00;98107.97;10398706;28;20060;-82
2022/09/28 14:03:39;;;;;;;3.55;1.20;;;;;;;14.99;45.37;98116.53;10417548;28;20414;-82
2022/09/28 14:09:08;;;;;;;3.80;0.90;;;;;;;14.21;45.08;98120.38;10418408;28;20064;-82
2022/09/28 14:14:23;;;;;;;3.85;1.20;;;;;;;14.41;45.93;98117.34;10403695;28;20045;-82
2022/09/28 14:19:30;;;;;;;2.95;0.90;;;;;;;14.27;45.98;98120.59;10410120;28;20056;-81
2022/09/28 14:24:37;;;;;;;2.75;1.15;;;;;;;14.20;46.79;98122.22;10427374;28;20431;-82
2022/09/28 14:29:39;;;;;;;1.38;1.00;;;;;;;14.23;45.65;98124.50;10428227;28;20057;-82
2022/09/28 14:34:44;;;;;;;4.13;2.40;;;;;;;14.34;45.70;98126.88;10423885;28;20049;-82
2022/09/28 14:45:10;;;;;;;2.97;1.20;;;;;;;14.39;46.33;98118.50;10424399;28;20099;-82
2022/09/28 14:50:33;;;;;;;5.97;1.50;;;;;;;14.41;46.03;98119.97;10402246;28;20042;-82
2022/09/28 14:55:50;;;;;;;3.80;1.20;;;;;;;14.58;46.84;98119.09;10423730;28;20053;-82
2022/09/28 15:01:16;;;;;;;2.95;1.45;;;;;;;14.54;46.13;98125.66;10422114;28;20434;-84
2022/09/28 15:06:22;;;;;;;3.45;0.95;;;;;;;14.46;46.38;98130.84;10407114;28;20053;-82
2022/09/28 15:11:25;;;;;;;3.90;1.30;;;;;;;14.31;47.42;98139.50;10404827;28;20060;-83
2022/09/28 15:16:29;;;;;;;2.08;1.10;;;;;;;14.27;47.20;98140.78;10410018;28;20136;-82
2022/09/28 15:21:39;;;;;;;3.97;1.10;;;;;;;14.36;47.21;98137.22;10427313;28;20060;-82
2022/09/28 15:26:46;;;;;;;1.67;0.93;;;;;;;14.39;47.11;98135.09;10426473;28;20853;-83
2022/09/28 15:31:49;;;;;;;3.00;0.98;;;;;;;14.35;46.97;98139.03;10416920;28;20079;-82
2022/09/28 15:36:58;;;;;;;2.38;1.10;;;;;;;14.27;47.48;98136.34;10398351;28;20089;-76
2022/09/28 15:42:02;;;;;;;3.08;1.10;;;;;;;14.30;47.50;98135.22;10397081;28;20072;-76
2022/09/28 15:47:06;;;;;;;3.47;1.00;;;;;;;14.12;47.69;98142.38;10389286;28;20050;-75
2022/09/28 15:52:28;;;;;;;2.58;1.10;;;;;;;13.99;47.93;98140.19;10388997;28;20114;-75
2022/09/28 15:57:36;;;;;;;3.80;1.10;;;;;;;14.04;48.29;98148.44;10408374;28;20054;-76
2022/09/28 16:02:55;;;;;;;5.05;1.30;;;;;;;13.95;48.29;98143.25;10412854;28;20056;-76
2022/09/28 16:08:02;;;;;;;3.28;1.10;;;;;;;13.91;48.71;98148.00;10389781;28;21052;-76
2022/09/28 16:13:16;;;;;;;4.95;1.20;;;;;;;13.89;49.45;98142.09;10394270;28;20052;-76
2022/09/28 16:18:20;;;;;;;4.22;1.80;;;;;;;13.91;49.17;98140.13;10390112;28;20049;-76
2022/09/28 16:23:33;;;;;;;8.10;2.30;;;;;;;13.86;49.99;98138.97;10416823;28;20056;-76
2022/09/28 16:28:37;;;;;;;4.38;1.70;;;;;;;13.78;49.58;98143.16;10405622;28;20060;-76
2022/09/28 16:33:45;;;;;;;3.33;1.60;;;;;;;13.70;49.73;98153.63;10407142;28;20053;-76
2022/09/28 16:38:48;;;;;;;5.25;1.70;;;;;;;13.67;50.19;98153.13;10404752;28;20045;-76
2022/09/28 16:43:55;;;;;;;4.15;1.50;;;;;;;13.64;50.81;98156.03;10408833;28;20514;-76
2022/09/28 16:48:58;;;;;;;3.47;1.20;;;;;;;13.63;51.48;98157.03;10402975;28;20044;-78
2022/09/28 16:59:37;;;;;;;5.90;3.22;;;;;;;13.33;52.22;98157.44;10402537;28;20104;-78
2022/09/28 17:04:39;;;;;;;6.88;4.15;;;;;;;13.14;52.80;98157.59;10394359;28;20060;-77
2022/09/28 17:09:54;;;;;;;5.05;2.97;;;;;;;12.84;53.59;98166.66;10384603;28;20495;-78
2022/09/28 17:14:56;;;;;;;9.93;5.30;;;;;;;12.63;53.50;98173.94;10388909;28;20048;-78
2022/09/28 17:20:00;;;;;;;9.55;6.25;;;;;;;12.50;55.05;98181.31;10386581;28;20046;-78
2022/09/28 17:25:03;;;;;;;11.65;7.57;;;;;;;12.45;55.79;98184.41;10410587;28;20041;-78
2022/09/28 17:30:06;;;;;;;10.63;6.70;;;;;;;12.42;56.05;98195.16;10386834;28;20073;-78
2022/09/28 17:35:10;;;;;;;10.52;5.38;;;;;;;12.34;56.36;98204.72;10407182;28;20045;-78
2022/09/28 17:40:28;;;;;;;5.30;2.75;;;;;;;12.23;56.83;98205.72;10388363;28;20060;-78
2022/09/28 17:45:32;;;;;;;8.27;3.80;;;;;;;12.11;57.44;98209.47;10393116;28;20099;-77
2022/09/28 17:50:38;;;;;;;5.82;2.95;;;;;;;12.02;57.43;98215.56;10387685;28;20103;-78
2022/09/28 17:56:16;;;;;;;6.18;4.00;;;;;;;11.82;58.26;98214.81;10402487;28;20057;-79
2022/09/28 18:01:22;;;;;;;6.78;2.58;;;;;;;11.78;58.15;98217.84;10383637;28;20574;-79
2022/09/28 18:06:30;;;;;;;7.85;2.05;;;;;;;11.61;58.75;98223.78;10407740;28;20167;-79
2022/09/28 18:11:40;;;;;;;3.83;2.20;;;;;;;11.49;58.93;98230.13;10396290;28;20061;-80
2022/09/28 18:16:44;;;;;;;8.32;2.35;;;;;;;11.30;59.13;98230.94;10409920;28;20134;-80
2022/09/28 18:21:50;;;;;;;6.53;2.03;;;;;;;11.24;59.64;98232.31;10380944;28;20071;-80
2022/09/28 18:27:02;;;;;;;6.53;2.10;;;;;;;11.22;60.15;98236.88;10389437;28;20053;-80
2022/09/28 18:32:05;;;;;;;5.40;2.90;;;;;;;11.24;60.06;98237.56;10352135;28;1219055;-79
2022/09/28 18:37:16;;;;;;;6.07;3.08;;;;;;;11.27;60.39;98239.09;10404606;28;20041;-78
2022/09/28 18:42:19;;;;;;;7.55;2.88;;;;;;;11.32;60.29;98242.94;10383111;28;20060;-78
2022/09/28 18:47:22;;;;;;;9.65;3.88;;;;;;;11.28;60.08;98253.81;10405450;28;20502;-78
2022/09/28 18:52:25;;;;;;;5.18;1.92;;;;;;;11.20;60.27;98253.66;10387219;28;20049;-78
2022/09/28 18:57:34;;;;;;;5.63;1.75;;;;;;;11.25;60.64;98265.38;10380433;28;20053;-78
2022/09/28 19:02:42;;;;;;;5.47;1.90;;;;;;;11.21;60.73;98274.44;10409211;28;20049;-77
2022/09/28 19:07:47;;;;;;;7.28;3.30;;;;;;;10.78;62.14;98317.53;10413582;28;20081;-78
2022/09/28 19:12:51;;;;;;;5.90;2.38;;;;;;;10.68;59.64;98303.59;10412879;28;20045;-77
2022/09/28 19:17:53;;;;;;;7.35;2.58;;;;;;;10.73;58.68;98304.84;10400662;28;20072;-78
2022/09/28 19:22:54;;;;;;;4.90;1.85;;;;;;;10.87;57.68;98311.50;10401572;28;20045;-78
2022/09/28 19:27:56;;;;;;;4.53;1.70;;;;;;;10.86;57.21;98315.09;10416050;28;20060;-78
2022/09/28 19:32:57;;;;;;;4.88;2.10;;;;;;;10.88;57.60;98324.47;10400175;28;20522;-78
2022/09/28 19:37:59;;;;;;;5.22;1.70;;;;;;;10.89;57.29;98326.13;10417224;28;20663;-78
2022/09/28 19:43:03;;;;;;;4.95;1.60;;;;;;;10.83;57.77;98325.81;10416941;28;20045;-77
2022/09/28 19:48:05;;;;;;;3.42;1.60;;;;;;;10.74;57.92;98339.69;10401257;28;20057;-78
2022/09/28 19:53:06;;;;;;;4.63;2.10;;;;;;;10.85;58.17;98337.81;10420232;28;20060;-78
2022/09/28 19:58:08;;;;;;;4.22;1.90;;;;;;;10.88;58.83;98349.78;10399827;28;20060;-78
2022/09/28 20:03:10;;;;;;;4.03;1.80;;;;;;;10.89;59.21;98346.22;10397044;28;20049;-78
2022/09/28 20:08:13;;;;;;;3.67;1.80;;;;;;;10.94;60.42;98355.31;10398637;28;20049;-78
2022/09/28 20:13:15;;;;;;;3.53;1.52;;;;;;;10.79;59.60;98351.41;10400341;28;20049;-78
2022/09/28 20:18:17;;;;;;;4.47;1.70;;;;;;;10.79;59.89;98356.63;10399813;28;20588;-78
2022/09/28 20:23:20;;;;;;;6.03;2.10;;;;;;;10.77;59.62;98350.69;10416510;28;20053;-78
2022/09/28 20:28:22;;;;;;;3.72;2.15;;;;;;;10.68;60.21;98343.66;10402596;28;20404;-78
2022/09/28 20:33:24;;;;;;;4.60;2.30;;;;;;;10.70;60.45;98335.69;10398482;28;20049;-78
2022/09/28 20:38:30;;;;;;;5.97;2.38;;;;;;;10.59;59.89;98339.19;10415336;28;20085;-78
2022/09/28 20:43:33;;;;;;;4.85;2.50;;;;;;;10.36;60.09;98342.91;10413522;28;20415;-78
2022/09/28 20:48:35;;;;;;;6.13;3.05;;;;;;;10.24;60.46;98339.56;10415248;28;20406;-78
2022/09/28 21:00:00;;;;;;;7.18;3.08;;;;;;;9.92;61.52;98343.16;10411218;28;20095;-77
2022/09/28 21:05:02;;;;;;;5.82;3.20;;;;;;;9.80;61.95;98349.41;10417083;28;20056;-78
2022/09/28 21:10:04;;;;;;;6.53;3.33;;;;;;;9.56;61.92;98353.00;10394934;28;20052;-78
2022/09/28 21:15:06;;;;;;;5.97;3.58;;;;;;;9.07;62.56;98352.66;10396770;28;20060;-78
2022/09/28 21:20:08;;;;;;;6.07;2.60;;;;;;;9.07;62.50;98359.63;10397324;28;20056;-78
2022/09/28 21:25:09;;;;;;;7.43;2.75;;;;;;;9.07;62.99;98359.63;10396412;28;20045;-78
2022/09/28 21:30:11;;;;;;;7.40;3.20;;;;;;;8.98;62.95;98355.97;10395205;28;20072;-78
2022/09/28 21:35:13;;;;;;;6.40;3.80;;;;;;;8.92;63.22;98351.22;10396915;28;20518;-78
2022/09/28 21:40:15;;;;;;;6.90;4.45;;;;;;;8.87;63.36;98357.75;10395410;28;21024;-78
2022/09/28 21:45:18;;;;;;;9.88;7.03;;;;;;;8.65;63.39;98348.13;10415429;28;20057;-77
2022/09/28 21:50:24;;;;;;;8.45;4.43;;;;;;;8.51;64.09;98348.38;10412522;28;20400;-77
2022/09/28 21:55:25;;;;;;;7.88;4.70;;;;;;;8.51;63.94;98356.19;10414137;28;20060;-78
2022/09/28 22:00:27;;;;;;;7.93;3.53;;;;;;;8.57;64.24;98355.72;10412969;28;20937;-77
2022/09/28 22:05:29;;;;;;;9.35;3.05;;;;;;;8.59;64.36;98356.44;10412762;28;20513;-78
2022/09/28 22:10:30;;;;;;;6.78;2.83;;;;;;;8.55;64.37;98358.44;10414575;28;20056;-78
2022/09/28 22:15:32;;;;;;;6.32;2.95;;;;;;;8.45;64.56;98372.28;10414270;28;20414;-78
2022/09/28 22:20:34;;;;;;;9.63;2.80;;;;;;;8.48;64.42;98369.47;10412995;28;20053;-78
2022/09/28 22:25:35;;;;;;;9.70;3.08;;;;;;;8.43;64.35;98368.97;10395360;28;20041;-78
2022/09/28 22:30:37;;;;;;;7.78;3.40;;;;;;;8.34;64.28;98367.06;10415312;28;20071;-78
2022/09/28 22:35:39;;;;;;;9.68;3.45;;;;;;;8.22;64.36;98370.59;10397846;28;20045;-78
2022/09/28 22:40:45;;;;;;;9.35;3.33;;;;;;;8.14;64.65;98370.34;10418067;28;20428;-77
2022/09/28 22:45:47;;;;;;;6.93;3.05;;;;;;;8.03;65.12;98374.53;10421976;28;20057;-78
2022/09/28 22:50:50;;;;;;;7.45;3.22;;;;;;;8.04;64.93;98370.97;10420314;28;20061;-78
2022/09/28 22:55:52;;;;;;;8.60;3.60;;;;;;;8.09;65.02;98373.25;10401637;28;20064;-77
2022/09/28 23:00:55;;;;;;;6.65;3.03;;;;;;;8.22;64.98;98370.59;10402131;28;20063;-78
2022/09/28 23:05:57;;;;;;;8.23;3.40;;;;;;;8.29;64.82;98361.34;10402637;28;20068;-77
2022/09/28 23:10:59;;;;;;;6.82;3.60;;;;;;;8.27;64.75;98363.25;10417322;28;20731;-78
2022/09/28 23:16:11;;;;;;;9.80;3.78;;;;;;;8.22;64.86;98358.38;10401410;28;20502;-78
2022/09/28 23:21:15;;;;;;;7.40;3.50;;;;;;;8.22;64.84;98362.78;10404043;28;20080;-78
2022/09/28 23:26:20;;;;;;;7.63;3.78;;;;;;;8.25;64.84;98363.38;10416252;28;20060;-78
2022/09/28 23:31:27;;;;;;;9.32;4.68;;;;;;;8.27;65.05;98368.47;10401517;28;20073;-78
2022/09/28 23:36:29;;;;;;;7.88;5.28;;;;;;;8.33;64.68;98368.84;10418064;28;20049;-78
2022/09/28 23:41:31;;;;;;;8.60;4.85;;;;;;;8.46;64.64;98358.31;10418890;28;20053;-78
2022/09/28 23:46:32;;;;;;;7.32;3.65;;;;;;;8.48;64.37;98359.03;10400661;28;20049;-78
2022/09/28 23:51:49;;;;;;;9.50;3.80;;;;;;;8.42;64.39;98367.31;10417499;28;20064;-78
2022/09/28 23:56:51;;;;;;;8.07;4.25;;;;;;;8.33;64.30;98366.22;10401642;28;20049;-77
